Time;durP1;ratioP1;P1;durP2;ratioP2;P2;SDS_P1;SDS_P2;PMS_P1;PMS_P2;Temp;Humidity;BMP_temperature;BMP_pressure;BME280_temperature;BME280_humidity;BME280_pressure;Samples;Min_cycle;Max_cycle;Signal;HPM_P1;HPM_P2
2023/06/20 08:35:22;;;;;;;;;10.75;9.50;;;;;25.47;52.50;100478.97;4978931;28;45864;-41
2023/06/20 08:37:48;;;;;;;;;9.25;7.75;;;;;25.48;52.37;100467.41;4985376;28;45193;-39
2023/06/20 08:40:14;;;;;;;;;11.00;9.25;;;;;25.50;52.29;100470.78;4987743;28;45491;-39
2023/06/20 08:42:42;;;;;;;;;12.00;10.75;;;;;25.52;52.42;100466.16;4982344;28;46880;-39
2023/06/20 08:45:08;;;;;;;;;12.00;9.00;;;;;25.54;52.68;100466.06;4979992;28;45327;-39
2023/06/20 08:47:34;;;;;;;;;14.25;10.00;;;;;25.56;52.47;100459.63;4980052;28;45285;-40
2023/06/20 08:49:59;;;;;;;;;9.75;9.50;;;;;25.56;52.81;100451.69;4979920;28;45344;-37
2023/06/20 08:52:29;;;;;;;;;10.75;10.25;;;;;25.58;52.37;100452.41;4980174;28;46752;-41
2023/06/20 08:54:55;;;;;;;;;11.00;10.25;;;;;25.59;52.37;100453.22;4981882;28;45312;-40
2023/06/20 08:57:20;;;;;;;;;12.75;10.75;;;;;25.60;52.18;100458.44;4980889;28;45335;-38
2023/06/20 08:59:46;;;;;;;;;13.00;11.00;;;;;25.61;51.92;100460.13;4986498;28;45348;-38
2023/06/20 09:02:11;;;;;;;;;13.25;9.75;;;;;25.63;52.29;100452.84;4991547;28;47465;-40
2023/06/20 09:04:37;;;;;;;;;10.75;9.00;;;;;25.64;52.25;100451.03;4990137;28;45370;-38
2023/06/20 09:07:15;;;;;;;;;16.00;13.50;;;;;25.66;52.50;100438.50;5000165;28;45324;-39
2023/06/20 09:09:40;;;;;;;;;12.00;12.00;;;;;25.67;52.13;100439.31;4985955;28;45257;-39
2023/06/20 09:12:07;;;;;;;;;8.75;8.25;;;;;25.68;52.51;100446.31;4980050;28;46504;-38
2023/06/20 09:14:32;;;;;;;;;13.50;13.00;;;;;25.69;52.41;100450.66;4979256;28;45733;-38
2023/06/20 09:16:59;;;;;;;;;12.50;9.25;;;;;25.70;51.77;100444.38;4982881;28;45428;-37
2023/06/20 09:19:25;;;;;;;;;10.75;10.75;;;;;25.73;52.13;100444.13;4985235;28;45357;-37
2023/06/20 09:21:50;;;;;;;;;9.50;9.50;;;;;25.74;52.06;100443.16;4985449;28;46243;-40
2023/06/20 09:24:19;;;;;;;;;10.00;10.00;;;;;25.75;52.14;100436.84;4984845;28;45331;-41
2023/06/20 09:26:49;;;;;;;;;14.50;9.25;;;;;25.77;52.37;100440.22;4986174;28;45261;-40
2023/06/20 09:29:16;;;;;;;;;9.75;9.25;;;;;25.73;52.36;100423.72;4989033;28;45403;-46
2023/06/20 09:31:43;;;;;;;;;12.00;10.50;;;;;25.76;52.14;100426.13;4995905;28;46519;-40
2023/06/20 09:34:12;;;;;;;;;11.75;10.75;;;;;25.76;52.18;100423.47;5001586;28;45796;-41
2023/06/20 09:36:39;;;;;;;;;10.50;10.00;;;;;25.78;52.19;100426.00;4998540;28;44874;-38
2023/06/20 09:39:20;;;;;;;;;13.75;11.75;;;;;25.79;52.16;100427.69;4998174;28;45344;-39
2023/06/20 09:41:46;;;;;;;;;13.00;11.00;;;;;25.81;52.13;100433.72;4992528;28;45596;-38
2023/06/20 09:44:13;;;;;;;;;11.50;9.25;;;;;25.78;52.27;100424.19;4991559;28;45015;-39
2023/06/20 09:46:39;;;;;;;;;12.00;11.25;;;;;25.79;52.46;100427.69;4984224;28;45296;-38
2023/06/20 09:49:05;;;;;;;;;10.25;10.00;;;;;25.82;52.43;100427.44;4984299;28;45599;-38
2023/06/20 09:51:33;;;;;;;;;12.00;10.50;;;;;25.83;52.35;100428.25;4986593;28;47241;-39
2023/06/20 09:54:03;;;;;;;;;8.50;8.00;;;;;25.80;52.18;100424.06;4990614;28;45115;-39
2023/06/20 09:56:31;;;;;;;;;12.00;10.50;;;;;25.83;51.98;100433.56;4996333;28;44781;-39
2023/06/20 09:59:00;;;;;;;;;10.00;8.75;;;;;25.82;52.24;100438.03;4997864;28;45246;-39
2023/06/20 10:01:28;;;;;;;;;8.50;7.25;;;;;25.85;52.07;100450.22;4992700;28;45551;-39
2023/06/20 10:03:54;;;;;;;;;14.00;11.00;;;;;25.83;52.10;100452.16;4996711;28;45404;-40
2023/06/20 10:06:21;;;;;;;;;9.75;9.75;;;;;25.85;51.72;100451.03;4993853;28;45320;-41
2023/06/20 10:08:49;;;;;;;;;12.25;10.25;;;;;25.87;51.79;100462.38;4995114;28;45388;-39
2023/06/20 10:11:14;;;;;;;;;8.75;7.00;;;;;25.89;51.34;100471.06;4995599;28;45228;-45
2023/06/20 10:13:41;;;;;;;;;12.00;11.25;;;;;25.90;51.52;100467.44;4993176;28;45156;-37
2023/06/20 10:16:07;;;;;;;;;12.75;10.25;;;;;25.91;51.86;100478.88;4986864;28;45261;-38
2023/06/20 10:18:32;;;;;;;;;12.25;8.00;;;;;25.89;51.85;100471.06;4990674;28;45134;-45
2023/06/20 10:21:01;;;;;;;;;9.00;9.00;;;;;25.95;51.46;100479.50;4997149;28;46082;-37
2023/06/20 10:23:30;;;;;;;;;10.75;9.50;;;;;25.95;51.23;100477.66;4992743;28;45233;-39
2023/06/20 10:26:01;;;;;;;;;9.00;8.00;;;;;25.96;51.21;100484.66;4983236;28;45273;-39
2023/06/20 10:28:26;;;;;;;;;9.75;9.75;;;;;25.96;51.30;100487.31;4981820;28;45497;-37
2023/06/20 10:30:57;;;;;;;;;10.25;10.25;;;;;25.95;51.31;100490.09;4978905;28;45501;-39
2023/06/20 10:33:33;;;;;;;;;8.00;7.00;;;;;25.97;50.91;100491.66;4978690;28;45319;-40
2023/06/20 10:36:12;;;;;;;;;9.00;8.50;;;;;25.99;50.87;100489.72;4978804;28;45346;-39
2023/06/20 10:39:00;;;;;;;;;11.00;9.00;;;;;26.00;50.83;100490.56;4985089;28;45332;-40
2023/06/20 10:41:27;;;;;;;;;9.75;8.75;;;;;26.00;50.96;100482.59;4975601;28;45540;-40
2023/06/20 10:43:53;;;;;;;;;9.25;6.75;;;;;26.03;50.43;100490.31;4979620;28;45213;-41
2023/06/20 10:46:21;;;;;;;;;7.75;7.75;;;;;26.02;50.20;100489.44;4978501;28;45454;-41
2023/06/20 10:48:46;;;;;;;;;8.50;8.50;;;;;26.00;50.50;100488.75;4981706;28;45577;-40
2023/06/20 10:51:11;;;;;;;;;9.50;7.75;;;;;26.02;50.37;100489.44;4992512;28;45429;-40
2023/06/20 10:53:37;;;;;;;;;8.75;7.00;;;;;26.04;50.24;100499.94;5000274;28;44806;-41
2023/06/20 10:56:02;;;;;;;;;9.00;6.75;;;;;26.05;50.25;100497.16;4981808;28;45410;-42
2023/06/20 10:58:27;;;;;;;;;9.50;8.25;;;;;26.04;49.96;100494.63;4978436;28;45314;-39
2023/06/20 11:00:54;;;;;;;;;8.75;8.00;;;;;26.04;49.87;100491.97;4977379;28;45325;-39
2023/06/20 11:03:21;;;;;;;;;6.50;6.50;;;;;26.07;50.19;100494.38;4977879;28;45660;-40
2023/06/20 11:05:51;;;;;;;;;8.50;7.25;;;;;26.08;49.78;100496.91;4982253;28;45182;-42
2023/06/20 11:08:27;;;;;;;;;9.00;7.00;;;;;26.06;49.94;100488.22;4978375;28;45419;-42
2023/06/20 11:10:53;;;;;;;;;7.50;7.50;;;;;26.09;49.95;100508.34;4977813;28;46454;-39
2023/06/20 11:13:19;;;;;;;;;7.75;7.00;;;;;26.10;49.94;100503.94;4977940;28;45289;-39
2023/06/20 11:15:45;;;;;;;;;7.50;7.00;;;;;26.10;49.92;100501.28;4977711;28;45429;-39
2023/06/20 11:18:10;;;;;;;;;7.75;7.50;;;;;26.11;49.57;100497.66;4984096;28;45557;-40
2023/06/20 11:20:39;;;;;;;;;9.75;7.50;;;;;26.13;49.87;100509.00;4987636;28;45449;-39
2023/06/20 11:23:06;;;;;;;;;5.75;5.75;;;;;26.13;49.77;100498.38;4982769;28;45285;-43
2023/06/20 11:25:33;;;;;;;;;8.50;7.00;;;;;26.13;49.80;100496.53;4995907;28;45256;-40
2023/06/20 11:28:13;;;;;;;;;7.25;5.50;;;;;26.13;49.60;100499.19;4995787;28;45642;-42
2023/06/20 11:30:41;;;;;;;;;8.00;8.00;;;;;26.13;50.02;100499.19;4984838;28;46768;-40
2023/06/20 11:33:08;;;;;;;;;6.50;6.50;;;;;26.13;49.79;100504.50;4981297;28;45641;-41
2023/06/20 11:35:51;;;;;;;;;7.00;7.00;;;;;26.15;49.82;100505.22;4981207;28;45498;-41
2023/06/20 11:38:24;;;;;;;;;7.75;6.25;;;;;26.16;49.83;100509.56;4981337;28;45322;-43
2023/06/20 11:41:06;;;;;;;;;9.50;8.25;;;;;26.19;50.21;100511.94;4987254;28;45762;-42
2023/06/20 11:43:37;;;;;;;;;6.00;6.00;;;;;26.20;50.17;100510.16;4989540;28;45657;-40
2023/06/20 11:46:02;;;;;;;;;9.25;6.25;;;;;26.18;50.09;100504.94;4984819;28;44773;-41
2023/06/20 11:48:29;;;;;;;;;7.25;6.75;;;;;26.21;50.20;100501.22;4986412;28;45544;-41
2023/06/20 11:50:59;;;;;;;;;8.75;6.25;;;;;26.21;50.22;100496.72;4980798;28;46381;-39
2023/06/20 11:53:36;;;;;;;;;7.00;6.50;;;;;26.22;50.26;100502.91;4984190;28;45750;-39
2023/06/20 11:56:04;;;;;;;;;9.75;8.50;;;;;26.23;50.42;100489.47;4980521;28;45351;-40
2023/06/20 11:58:56;;;;;;;;;11.50;7.25;;;;;26.21;50.34;100483.44;4987667;28;45326;-40
2023/06/20 12:01:24;;;;;;;;;4.50;4.50;;;;;26.24;50.21;100485.00;4984059;28;46262;-41
2023/06/20 12:04:01;;;;;;;;;5.75;5.00;;;;;26.24;50.05;100485.00;4980303;28;45622;-39
2023/06/20 12:06:29;;;;;;;;;8.00;6.75;;;;;26.24;50.32;100471.72;4983909;28;45329;-40
2023/06/20 12:09:00;;;;;;;;;9.50;6.50;;;;;26.25;50.30;100476.03;4981090;28;45471;-39
2023/06/20 12:11:27;;;;;;;;;7.75;7.00;;;;;26.25;50.01;100489.34;4980110;28;45427;-39
2023/06/20 12:13:52;;;;;;;;;7.75;6.50;;;;;26.26;49.88;100498.16;4981329;28;45416;-39
2023/06/20 12:16:19;;;;;;;;;8.75;6.25;;;;;26.26;49.95;100490.19;4986751;28;45393;-40
2023/06/20 12:18:48;;;;;;;;;9.50;7.75;;;;;26.27;49.81;100505.16;4983028;28;45352;-38
2023/06/20 12:21:14;;;;;;;;;6.25;6.25;;;;;26.26;49.72;100487.53;4978901;28;45400;-39
2023/06/20 12:23:40;;;;;;;;;8.00;8.00;;;;;26.27;49.94;100491.88;4979910;28;45306;-40
2023/06/20 12:26:05;;;;;;;;;7.00;7.00;;;;;26.28;49.45;100498.88;4980210;28;45337;-40
2023/06/20 12:28:32;;;;;;;;;9.00;7.75;;;;;26.27;49.75;100502.50;4982514;28;45305;-40
2023/06/20 12:30:59;;;;;;;;;10.00;8.75;;;;;26.28;49.09;100507.66;4981901;28;45723;-42
2023/06/20 12:33:27;;;;;;;;;7.00;7.00;;;;;26.27;49.15;100491.88;4982687;28;45348;-41
2023/06/20 12:35:52;;;;;;;;;6.50;6.50;;;;;26.29;49.21;100497.91;4984789;28;45309;-43
2023/06/20 12:38:18;;;;;;;;;13.25;8.50;;;;;26.30;48.78;100494.25;4990603;28;45554;-41
2023/06/20 12:40:44;;;;;;;;;8.25;7.50;;;;;26.30;48.66;100497.75;4991854;28;46586;-40
2023/06/20 12:43:09;;;;;;;;;10.00;8.25;;;;;26.31;48.65;100490.63;4986285;28;45597;-41
2023/06/20 12:45:35;;;;;;;;;11.00;8.75;;;;;26.31;48.63;100501.25;4985747;28;45225;-41
2023/06/20 12:48:01;;;;;;;;;8.75;8.75;;;;;26.30;48.66;100496.91;4988737;28;45505;-42
2023/06/20 12:50:27;;;;;;;;;10.50;9.25;;;;;26.30;48.75;100495.09;4987750;28;45382;-42
2023/06/20 12:52:52;;;;;;;;;7.75;7.75;;;;;26.33;48.41;100507.28;4985160;28;45359;-41
2023/06/20 12:55:17;;;;;;;;;8.00;8.00;;;;;26.32;48.45;100508.25;4997590;28;45149;-41
2023/06/20 12:57:43;;;;;;;;;9.00;8.25;;;;;26.31;48.34;100511.88;4986817;28;45575;-41
2023/06/20 13:00:09;;;;;;;;;9.50;8.25;;;;;26.33;48.49;100509.94;4985533;28;46370;-40
2023/06/20 13:02:35;;;;;;;;;13.25;8.25;;;;;26.34;48.61;100522.25;4998737;28;45780;-39
2023/06/20 13:05:01;;;;;;;;;9.00;8.50;;;;;26.34;48.93;100516.94;4985059;28;45402;-39
2023/06/20 13:07:26;;;;;;;;;8.50;8.00;;;;;26.34;48.42;100519.59;4981729;28;45483;-40
2023/06/20 13:09:52;;;;;;;;;11.25;7.75;;;;;26.33;48.88;100523.22;4983401;28;45583;-39
2023/06/20 13:12:17;;;;;;;;;9.00;7.50;;;;;26.34;48.55;100516.94;4985014;28;45743;-42
2023/06/20 13:14:44;;;;;;;;;11.00;8.50;;;;;26.34;48.41;100527.56;4979712;28;45532;-41
2023/06/20 13:17:10;;;;;;;;;11.25;10.00;;;;;26.35;48.49;100529.25;4983516;28;45236;-39
2023/06/20 13:19:36;;;;;;;;;9.00;9.00;;;;;26.33;48.55;100521.41;4981144;28;46333;-41
2023/06/20 13:22:02;;;;;;;;;9.75;8.75;;;;;26.36;48.46;100517.66;4981962;28;45198;-41
2023/06/20 13:24:28;;;;;;;;;8.00;7.00;;;;;26.35;48.68;100510.66;4981762;28;45332;-42
2023/06/20 13:26:53;;;;;;;;;10.50;9.00;;;;;26.34;48.28;100501.00;5001064;28;44866;-40
2023/06/20 13:29:18;;;;;;;;;8.50;8.00;;;;;26.33;48.50;100500.16;5003323;28;45308;-43
2023/06/20 13:31:44;;;;;;;;;9.00;7.75;;;;;26.36;48.55;100496.41;4996019;28;45325;-43
2023/06/20 13:34:09;;;;;;;;;8.00;8.00;;;;;26.36;48.52;100491.91;4983992;28;45923;-43
2023/06/20 13:36:34;;;;;;;;;5.75;5.75;;;;;26.36;48.62;100491.91;4979448;28;45229;-40
2023/06/20 13:39:00;;;;;;;;;12.00;9.00;;;;;26.36;48.66;100483.13;4979900;28;46099;-40
2023/06/20 13:41:26;;;;;;;;;11.25;8.25;;;;;26.36;48.41;100480.44;4981963;28;45934;-39
2023/06/20 13:43:52;;;;;;;;;10.25;6.75;;;;;26.37;48.79;100488.28;4988174;28;45403;-39
2023/06/20 13:46:19;;;;;;;;;9.00;9.00;;;;;26.36;48.50;100488.44;4996378;28;44901;-41
2023/06/20 13:48:46;;;;;;;;;8.00;8.00;;;;;26.37;48.49;100490.94;4980882;28;46377;-40
2023/06/20 13:51:11;;;;;;;;;10.00;7.75;;;;;26.38;48.39;100486.47;4978740;28;45235;-38
2023/06/20 13:53:36;;;;;;;;;8.25;7.75;;;;;26.37;48.23;100488.28;4979379;28;45205;-40
2023/06/20 13:56:02;;;;;;;;;7.50;7.50;;;;;26.38;48.28;100497.13;4980686;28;45583;-41
2023/06/20 13:58:27;;;;;;;;;10.50;8.50;;;;;26.38;48.40;100497.94;4981987;28;46266;-41
2023/06/20 14:00:53;;;;;;;;;9.00;8.00;;;;;26.39;47.98;100498.78;4982711;28;45285;-41
2023/06/20 14:03:19;;;;;;;;;10.25;8.00;;;;;26.37;48.39;100504.22;4978827;28;45341;-41
2023/06/20 14:05:44;;;;;;;;;8.75;7.25;;;;;26.38;48.53;100511.22;4980008;28;45663;-41
2023/06/20 14:08:09;;;;;;;;;7.25;7.25;;;;;26.39;48.13;100504.13;4983374;28;46581;-41
2023/06/20 14:10:35;;;;;;;;;8.00;7.75;;;;;26.38;48.01;100513.88;4980082;28;45802;-40
2023/06/20 14:13:00;;;;;;;;;9.00;8.00;;;;;26.38;48.18;100507.75;4979110;28;45698;-41
2023/06/20 14:15:26;;;;;;;;;9.50;7.00;;;;;26.41;48.18;100504.78;4977713;28;45654;-43
2023/06/20 14:17:54;;;;;;;;;8.50;6.75;;;;;26.42;48.45;100500.34;4979973;28;45435;-42
2023/06/20 14:20:20;;;;;;;;;7.75;6.25;;;;;26.42;48.24;100498.50;4980884;28;45327;-41
2023/06/20 14:22:45;;;;;;;;;8.75;8.75;;;;;26.40;48.21;100487.19;4994917;28;45138;-42
2023/06/20 14:25:10;;;;;;;;;7.25;7.25;;;;;26.43;47.84;100494.06;4978692;28;45298;-40
2023/06/20 14:27:36;;;;;;;;;9.25;8.00;;;;;26.44;48.30;100493.91;4977963;28;46885;-41
2023/06/20 14:30:01;;;;;;;;;8.75;7.00;;;;;26.45;48.52;100486.81;4978974;28;45359;-39
2023/06/20 14:32:26;;;;;;;;;9.00;8.00;;;;;26.44;48.49;100507.19;4980903;28;45285;-39
2023/06/20 14:34:52;;;;;;;;;8.00;7.00;;;;;26.45;48.38;100511.53;4978172;28;45603;-40
2023/06/20 14:37:19;;;;;;;;;10.00;7.00;;;;;26.46;48.35;100518.53;4983865;28;46042;-41
2023/06/20 14:39:44;;;;;;;;;7.50;6.75;;;;;26.46;47.92;100518.53;4982963;28;45688;-40
2023/06/20 14:42:09;;;;;;;;;9.50;8.00;;;;;26.44;47.86;100515.16;4978830;28;45327;-40
2023/06/20 14:44:35;;;;;;;;;6.50;6.50;;;;;26.46;47.87;100523.03;4981878;28;45487;-40
2023/06/20 14:47:00;;;;;;;;;7.75;5.75;;;;;26.46;47.87;100531.81;4977441;28;45432;-39
2023/06/20 14:49:26;;;;;;;;;8.75;7.00;;;;;26.41;47.83;100510.09;4977644;28;45466;-43
2023/06/20 14:51:51;;;;;;;;;6.75;6.00;;;;;26.46;47.80;100523.84;4977412;28;45354;-43
2023/06/20 14:54:17;;;;;;;;;5.50;5.00;;;;;26.47;47.30;100525.53;4977245;28;45403;-42
2023/06/20 14:56:42;;;;;;;;;6.50;6.50;;;;;26.47;47.50;100524.69;4982113;28;46385;-42
2023/06/20 14:59:07;;;;;;;;;6.00;5.00;;;;;26.47;47.52;100528.19;4988233;28;45313;-42
2023/06/20 15:01:34;;;;;;;;;6.00;5.50;;;;;26.43;47.75;100521.47;4981525;28;45450;-42
2023/06/20 15:03:59;;;;;;;;;6.50;6.00;;;;;26.47;47.40;100522.88;4984701;28;45224;-43
2023/06/20 15:06:25;;;;;;;;;5.00;5.00;;;;;26.48;47.29;100529.88;4978684;28;45241;-43
2023/06/20 15:08:50;;;;;;;;;6.50;5.00;;;;;26.47;47.45;100525.53;4978530;28;45316;-40
2023/06/20 15:11:15;;;;;;;;;7.00;5.00;;;;;26.44;47.43;100515.16;4978320;28;45376;-41
2023/06/20 15:13:41;;;;;;;;;7.00;6.00;;;;;26.48;47.36;100526.38;4976063;28;45321;-41
2023/06/20 15:16:06;;;;;;;;;3.00;1.75;;;;;26.48;47.54;100524.56;4978158;28;46876;-40
2023/06/20 15:18:32;;;;;;;;;7.00;6.00;;;;;26.47;47.67;100522.03;4981690;28;45409;-41
2023/06/20 15:20:57;;;;;;;;;6.00;5.00;;;;;26.49;47.64;100531.56;4984236;28;45229;-40
2023/06/20 15:23:23;;;;;;;;;6.50;5.50;;;;;26.50;47.91;100533.25;4981438;28;45237;-42
2023/06/20 15:25:48;;;;;;;;;7.25;4.00;;;;;26.53;47.82;100535.63;4976901;28;47252;-41
2023/06/20 15:28:14;;;;;;;;;4.25;4.25;;;;;26.53;47.61;100532.97;4975890;28;45413;-40
2023/06/20 15:30:40;;;;;;;;;6.00;4.75;;;;;26.53;47.76;100532.97;4981794;28;45511;-39
2023/06/20 15:33:05;;;;;;;;;6.25;5.50;;;;;26.54;47.77;100534.66;4982420;28;45475;-40
2023/06/20 15:35:30;;;;;;;;;5.25;5.25;;;;;26.54;48.17;100537.31;4981470;28;51931;-40
2023/06/20 15:37:56;;;;;;;;;6.75;6.00;;;;;26.55;48.24;100538.19;4975711;28;45421;-40
2023/06/20 15:40:21;;;;;;;;;7.75;4.75;;;;;26.57;48.06;100530.06;4977519;28;45323;-40
2023/06/20 15:42:46;;;;;;;;;5.00;5.00;;;;;26.56;48.06;100534.56;4994718;28;45630;-46
2023/06/20 15:45:12;;;;;;;;;7.75;5.25;;;;;26.57;48.22;100530.88;4977476;28;45392;-41
2023/06/20 15:47:37;;;;;;;;;6.25;5.25;;;;;26.58;48.41;100529.91;4979083;28;45442;-42
2023/06/20 15:50:03;;;;;;;;;7.00;4.25;;;;;26.61;48.27;100531.50;4979343;28;45522;-41
2023/06/20 15:52:29;;;;;;;;;5.00;5.00;;;;;26.62;48.22;100525.19;4977542;28;45392;-41
2023/06/20 15:54:54;;;;;;;;;6.75;5.25;;;;;26.63;47.85;100526.84;4976941;28;46290;-41
2023/06/20 15:57:20;;;;;;;;;5.75;3.75;;;;;26.62;47.89;100519.88;4977718;28;45183;-41
2023/06/20 15:59:45;;;;;;;;;6.25;5.00;;;;;26.63;47.78;100513.56;4985096;28;45278;-42
2023/06/20 16:02:13;;;;;;;;;7.00;5.00;;;;;26.62;47.47;100520.72;4985969;28;45223;-40
2023/06/20 16:04:40;;;;;;;;;5.75;4.50;;;;;26.62;47.94;100527.88;4991945;28;46409;-42
2023/06/20 16:07:07;;;;;;;;;5.00;4.00;;;;;26.64;47.58;100533.88;4986676;28;45427;-45
2023/06/20 16:09:33;;;;;;;;;5.75;5.75;;;;;26.63;47.57;100532.19;4977765;28;45312;-43
2023/06/20 16:11:58;;;;;;;;;5.00;5.00;;;;;26.64;47.86;100540.03;4987180;28;45403;-42
2023/06/20 16:14:24;;;;;;;;;9.00;5.00;;;;;26.66;47.68;100538.09;4995639;28;45473;-40
2023/06/20 16:16:49;;;;;;;;;4.25;4.25;;;;;26.66;48.02;100547.88;4993400;28;47395;-46
2023/06/20 16:19:14;;;;;;;;;6.00;5.75;;;;;26.67;47.99;100538.91;4980296;28;51885;-46
2023/06/20 16:21:40;;;;;;;;;4.25;4.00;;;;;26.66;48.11;100532.78;4980242;28;45324;-45
2023/06/20 16:24:06;;;;;;;;;6.00;6.00;;;;;26.65;48.18;100532.88;4978791;28;46286;-44
2023/06/20 16:26:31;;;;;;;;;4.25;4.25;;;;;26.66;47.94;100532.78;4987035;28;45242;-42
2023/06/20 16:28:56;;;;;;;;;6.75;5.00;;;;;26.67;48.01;100538.91;4984955;28;45217;-43
2023/06/20 16:31:22;;;;;;;;;6.25;5.50;;;;;26.66;48.09;100531.91;4979971;28;45223;-43
2023/06/20 16:33:48;;;;;;;;;5.50;4.00;;;;;26.66;48.12;100515.97;4979158;28;46443;-43
2023/06/20 16:36:13;;;;;;;;;4.50;4.00;;;;;26.65;48.19;100514.28;4978523;28;45884;-42
2023/06/20 16:38:38;;;;;;;;;6.75;4.00;;;;;26.68;47.97;100535.28;4983360;28;45226;-44
2023/06/20 16:41:04;;;;;;;;;6.50;4.50;;;;;26.66;48.25;100542.56;4985531;28;45711;-50
2023/06/20 16:43:29;;;;;;;;;5.25;4.75;;;;;26.66;47.88;100559.34;4985237;28;45411;-43
2023/06/20 16:45:55;;;;;;;;;8.00;4.50;;;;;26.63;47.96;100562.28;4983691;28;45422;-45
2023/06/20 16:48:20;;;;;;;;;4.00;4.00;;;;;26.64;47.72;100555.13;4993520;28;44854;-50
2023/06/20 16:50:46;;;;;;;;;5.25;4.00;;;;;26.64;48.00;100560.44;4994364;28;45228;-51
2023/06/20 16:53:11;;;;;;;;;6.25;4.00;;;;;26.63;47.56;100554.31;4987622;28;45511;-42
2023/06/20 16:55:38;;;;;;;;;6.75;4.50;;;;;26.63;47.90;100556.97;4991554;28;45799;-43
2023/06/20 16:58:03;;;;;;;;;5.00;5.00;;;;;26.63;47.85;100546.31;4990652;28;45374;-41
2023/06/20 17:00:29;;;;;;;;;7.50;4.00;;;;;26.63;47.85;100553.44;4992811;28;45372;-41
2023/06/20 17:02:54;;;;;;;;;5.00;5.00;;;;;26.64;48.09;100561.31;4993385;28;45333;-42
2023/06/20 17:05:19;;;;;;;;;4.75;4.75;;;;;26.62;47.91;100563.25;4993124;28;49665;-41
2023/06/20 17:07:45;;;;;;;;;4.50;4.50;;;;;26.64;48.04;100566.63;4995555;28;46728;-40
2023/06/20 17:10:10;;;;;;;;;8.50;5.75;;;;;26.66;48.06;100579.78;4994907;28;45268;-41
2023/06/20 17:12:36;;;;;;;;;5.75;5.00;;;;;26.65;47.91;100586.06;4995196;28;46393;-42
2023/06/20 17:15:02;;;;;;;;;7.00;4.75;;;;;26.65;47.99;100591.38;4990753;28;45158;-41
2023/06/20 17:17:28;;;;;;;;;5.75;4.50;;;;;26.64;47.70;100593.19;4986278;28;45391;-41
2023/06/20 17:19:53;;;;;;;;;3.25;3.25;;;;;26.62;47.71;100591.66;4983603;28;45365;-40
2023/06/20 17:22:19;;;;;;;;;5.50;3.25;;;;;26.64;47.45;100579.06;4986300;28;46137;-42
2023/06/20 17:24:44;;;;;;;;;3.00;2.00;;;;;26.63;47.76;100593.31;4987894;28;54505;-43
2023/06/20 17:27:10;;;;;;;;;4.00;4.00;;;;;26.64;47.74;100603.84;4980462;28;45319;-42
2023/06/20 17:29:36;;;;;;;;;8.00;7.00;;;;;26.63;47.69;100604.81;4984200;28;45898;-41
2023/06/20 17:32:01;;;;;;;;;7.50;6.25;;;;;26.62;47.71;100595.13;4981981;28;45646;-40
2023/06/20 17:34:27;;;;;;;;;8.25;5.25;;;;;26.62;48.22;100595.13;4989258;28;45325;-39
2023/06/20 17:36:53;;;;;;;;;4.00;4.00;;;;;26.60;47.97;100597.09;4991099;28;45332;-41
2023/06/20 17:39:21;;;;;;;;;6.00;5.00;;;;;26.62;47.53;100613.75;4983981;28;45442;-39
2023/06/20 17:41:46;;;;;;;;;6.75;6.00;;;;;26.62;47.48;100612.91;4980841;28;45523;-39
2023/06/20 17:44:15;;;;;;;;;5.25;4.75;;;;;26.62;47.50;100613.75;4980415;28;45431;-40
2023/06/20 17:46:41;;;;;;;;;7.00;5.75;;;;;26.62;47.47;100619.06;4981477;28;45292;-42
2023/06/20 17:49:06;;;;;;;;;6.25;5.00;;;;;26.61;47.34;100613.88;4984509;28;45272;-40
2023/06/20 17:51:32;;;;;;;;;7.00;5.50;;;;;26.59;47.53;100610.50;4984541;28;46425;-40
2023/06/20 17:53:57;;;;;;;;;5.75;5.75;;;;;26.54;47.23;100595.78;4984183;28;45329;-42
2023/06/20 17:56:22;;;;;;;;;6.00;5.00;;;;;26.57;47.60;100607.13;4986949;28;45359;-40
2023/06/20 17:58:52;;;;;;;;;5.50;4.75;;;;;26.55;47.29;100608.09;4986081;28;50796;-39
2023/06/20 18:01:17;;;;;;;;;8.50;7.00;;;;;26.53;47.45;100606.56;4996544;28;46117;-39
2023/06/20 18:03:43;;;;;;;;;7.25;6.00;;;;;26.54;47.32;100602.94;4997278;28;45352;-40
2023/06/20 18:06:08;;;;;;;;;10.00;8.00;;;;;26.53;47.38;100603.91;4994821;28;45308;-41
2023/06/20 18:08:33;;;;;;;;;7.25;5.25;;;;;26.53;47.80;100598.59;4993000;28;45308;-40
2023/06/20 18:10:59;;;;;;;;;5.25;5.25;;;;;26.54;47.42;100602.94;4992167;28;46670;-39
2023/06/20 18:13:24;;;;;;;;;7.25;7.25;;;;;26.51;47.53;100601.34;4994806;28;45426;-40
2023/06/20 18:15:50;;;;;;;;;9.00;6.50;;;;;26.50;47.58;100604.16;4988948;28;45363;-41
2023/06/20 18:18:15;;;;;;;;;9.00;8.00;;;;;26.54;47.69;100613.56;4988023;28;45329;-41
2023/06/20 18:20:41;;;;;;;;;7.75;7.75;;;;;26.50;47.51;100610.34;4990339;28;45488;-39
2023/06/20 18:23:06;;;;;;;;;10.00;6.75;;;;;26.54;47.56;100614.41;4990602;28;45446;-40
2023/06/20 18:25:31;;;;;;;;;7.00;6.75;;;;;26.53;47.64;100618.03;4993765;28;45862;-38
2023/06/20 18:27:57;;;;;;;;;8.00;6.50;;;;;26.52;47.78;100611.00;4998549;28;45336;-40
2023/06/20 18:30:22;;;;;;;;;9.25;6.75;;;;;26.53;47.67;100607.38;4997384;28;45970;-41
2023/06/20 18:32:47;;;;;;;;;8.50;7.00;;;;;26.53;47.73;100617.19;4988653;28;45281;-42
2023/06/20 18:35:13;;;;;;;;;9.25;7.00;;;;;26.50;47.52;100612.13;4978125;28;45329;-41
2023/06/20 18:37:39;;;;;;;;;9.00;8.00;;;;;26.52;47.64;100620.81;4983714;28;45435;-40
2023/06/20 18:40:06;;;;;;;;;8.50;7.50;;;;;26.50;47.63;100628.06;4986555;28;46825;-39
2023/06/20 18:42:32;;;;;;;;;9.50;7.25;;;;;26.49;47.59;100632.56;4981878;28;45226;-39
2023/06/20 18:44:57;;;;;;;;;10.50;8.75;;;;;26.50;47.77;100615.66;4978221;28;45723;-40
2023/06/20 18:47:23;;;;;;;;;8.25;8.25;;;;;26.50;47.69;100623.63;4983261;28;45323;-38
2023/06/20 18:49:48;;;;;;;;;9.25;9.25;;;;;26.50;47.65;100620.97;4982071;28;46091;-39
2023/06/20 18:52:13;;;;;;;;;8.00;8.00;;;;;26.47;47.68;100617.69;4979887;28;51497;-39
2023/06/20 18:54:40;;;;;;;;;7.50;6.75;;;;;26.48;47.66;100622.91;4958467;28;45399;-39
2023/06/20 18:57:07;;;;;;;;;8.25;7.50;;;;;26.48;47.41;100619.38;4956937;28;45318;-39
2023/06/20 18:59:32;;;;;;;;;8.75;8.50;;;;;26.47;47.60;100615.91;4959982;28;45531;-39
2023/06/20 19:01:57;;;;;;;;;9.75;7.25;;;;;26.44;48.05;100615.31;4959871;28;45407;-40
2023/06/20 19:04:23;;;;;;;;;10.75;9.50;;;;;26.47;47.77;100623.88;4957815;28;45433;-41
2023/06/20 19:06:48;;;;;;;;;11.50;9.50;;;;;26.44;47.54;100629.44;4957698;28;45558;-40
2023/06/20 19:09:13;;;;;;;;;8.00;8.00;;;;;26.45;47.24;100641.75;4958907;28;46094;-39
2023/06/20 19:11:39;;;;;;;;;7.00;7.00;;;;;26.43;47.58;100646.34;4959943;28;45308;-39
2023/06/20 19:14:05;;;;;;;;;9.25;8.50;;;;;26.44;47.73;100650.69;4979668;28;45720;-43
2023/06/20 19:16:31;;;;;;;;;11.25;9.25;;;;;26.44;47.79;100650.69;4977300;28;45578;-40
2023/06/20 19:18:56;;;;;;;;;9.25;9.00;;;;;26.44;47.61;100649.88;4970598;28;45256;-41
2023/06/20 19:21:22;;;;;;;;;11.00;8.00;;;;;26.45;47.76;100649.72;4966293;28;45369;-39
2023/06/20 19:23:51;;;;;;;;;6.75;6.75;;;;;26.44;47.51;100656.00;4959806;28;45266;-40
2023/06/20 19:26:18;;;;;;;;;9.25;9.00;;;;;26.46;47.80;100654.06;4958591;28;45515;-41
2023/06/20 19:28:43;;;;;;;;;8.25;6.75;;;;;26.46;47.59;100653.25;4964733;28;46479;-40
2023/06/20 19:31:09;;;;;;;;;11.25;7.75;;;;;26.45;47.66;100655.03;4977790;28;45312;-42
2023/06/20 19:33:34;;;;;;;;;7.00;7.00;;;;;26.46;47.46;100659.38;4973973;28;44797;-42
2023/06/20 19:35:59;;;;;;;;;7.25;6.75;;;;;26.47;47.77;100661.06;4973060;28;48469;-38
2023/06/20 19:38:25;;;;;;;;;9.50;7.50;;;;;26.46;47.88;100664.69;4960620;28;45513;-36
2023/06/20 19:40:50;;;;;;;;;8.50;8.25;;;;;26.46;47.86;100669.19;4961234;28;45317;-38
2023/06/20 19:43:16;;;;;;;;;10.25;9.25;;;;;26.46;47.65;100670.00;4977414;28;45353;-39
2023/06/20 19:45:42;;;;;;;;;10.50;9.50;;;;;26.45;47.76;100670.97;4964200;28;45210;-38
2023/06/20 19:48:07;;;;;;;;;9.50;7.75;;;;;26.44;48.01;100666.63;4961050;28;47378;-43
2023/06/20 19:50:33;;;;;;;;;10.75;6.25;;;;;26.45;48.13;100675.47;4960550;28;45362;-42
2023/06/20 19:52:58;;;;;;;;;11.00;10.50;;;;;26.45;47.93;100684.28;4960544;28;45566;-41